sensor_id;sensor_type;location;lat;lon;timestamp;P1;durP1;ratioP1;P2;durP2;ratioP2
22939;SDS011;11636;52.086;5.090;2023-03-16T00:02:24;7.63;;;4.78;;
22939;SDS011;11636;52.086;5.090;2023-03-16T00:04:57;6.68;;;5.05;;
22939;SDS011;11636;52.086;5.090;2023-03-16T00:07:24;8.20;;;4.88;;
22939;SDS011;11636;52.086;5.090;2023-03-16T00:09:51;7.40;;;4.93;;
22939;SDS011;11636;52.086;5.090;2023-03-16T00:12:26;6.93;;;4.90;;
22939;SDS011;11636;52.086;5.090;2023-03-16T00:14:53;6.70;;;4.85;;
22939;SDS011;11636;52.086;5.090;2023-03-16T00:17:26;8.32;;;4.75;;
22939;SDS011;11636;52.086;5.090;2023-03-16T00:19:54;7.47;;;5.13;;
22939;SDS011;11636;52.086;5.090;2023-03-16T00:22:29;7.15;;;4.60;;
22939;SDS011;11636;52.086;5.090;2023-03-16T00:24:56;7.18;;;4.95;;
22939;SDS011;11636;52.086;5.090;2023-03-16T00:27:24;8.52;;;5.53;;
22939;SDS011;11636;52.086;5.090;2023-03-16T00:29:57;8.85;;;4.97;;
22939;SDS011;11636;52.086;5.090;2023-03-16T00:32:27;6.38;;;4.72;;
22939;SDS011;11636;52.086;5.090;2023-03-16T00:35:04;8.15;;;5.13;;
22939;SDS011;11636;52.086;5.090;2023-03-16T00:37:34;6.68;;;4.72;;
22939;SDS011;11636;52.086;5.090;2023-03-16T00:40:03;7.72;;;6.05;;
22939;SDS011;11636;52.086;5.090;2023-03-16T00:42:45;9.38;;;5.40;;
22939;SDS011;11636;52.086;5.090;2023-03-16T00:45:12;8.55;;;5.55;;
22939;SDS011;11636;52.086;5.090;2023-03-16T00:47:38;7.25;;;5.22;;
22939;SDS011;11636;52.086;5.090;2023-03-16T00:50:14;6.97;;;4.90;;
22939;SDS011;11636;52.086;5.090;2023-03-16T00:52:41;7.60;;;5.10;;
22939;SDS011;11636;52.086;5.090;2023-03-16T00:55:08;7.93;;;5.32;;
22939;SDS011;11636;52.086;5.090;2023-03-16T00:57:42;6.70;;;5.10;;
22939;SDS011;11636;52.086;5.090;2023-03-16T01:00:08;7.85;;;5.10;;
22939;SDS011;11636;52.086;5.090;2023-03-16T01:02:50;7.28;;;5.22;;
22939;SDS011;11636;52.086;5.090;2023-03-16T01:05:17;7.57;;;5.38;;
22939;SDS011;11636;52.086;5.090;2023-03-16T01:07:48;6.65;;;4.70;;
22939;SDS011;11636;52.086;5.090;2023-03-16T01:10:21;8.40;;;5.05;;
22939;SDS011;11636;52.086;5.090;2023-03-16T01:12:53;6.00;;;4.50;;
22939;SDS011;11636;52.086;5.090;2023-03-16T01:15:21;8.93;;;5.13;;
22939;SDS011;11636;52.086;5.090;2023-03-16T01:17:56;6.63;;;4.68;;
22939;SDS011;11636;52.086;5.090;2023-03-16T01:20:22;6.97;;;4.78;;
22939;SDS011;11636;52.086;5.090;2023-03-16T01:22:49;8.15;;;4.75;;
22939;SDS011;11636;52.086;5.090;2023-03-16T01:25:22;6.38;;;4.80;;
22939;SDS011;11636;52.086;5.090;2023-03-16T01:27:49;7.22;;;4.43;;
22939;SDS011;11636;52.086;5.090;2023-03-16T01:30:24;10.07;;;5.88;;
22939;SDS011;11636;52.086;5.090;2023-03-16T01:32:58;8.45;;;5.88;;
22939;SDS011;11636;52.086;5.090;2023-03-16T01:35:24;8.65;;;5.40;;
22939;SDS011;11636;52.086;5.090;2023-03-16T01:37:51;6.93;;;5.28;;
22939;SDS011;11636;52.086;5.090;2023-03-16T01:40:24;7.55;;;5.13;;
22939;SDS011;11636;52.086;5.090;2023-03-16T01:43:02;8.70;;;5.50;;
22939;SDS011;11636;52.086;5.090;2023-03-16T01:48:46;9.55;;;5.57;;
22939;SDS011;11636;52.086;5.090;2023-03-16T01:57:03;8.10;;;4.88;;
22939;SDS011;11636;52.086;5.090;2023-03-16T02:02:24;6.68;;;4.20;;
22939;SDS011;11636;52.086;5.090;2023-03-16T02:07:43;8.02;;;4.45;;
22939;SDS011;11636;52.086;5.090;2023-03-16T02:10:19;7.35;;;5.38;;
22939;SDS011;11636;52.086;5.090;2023-03-16T02:12:46;7.32;;;5.03;;
22939;SDS011;11636;52.086;5.090;2023-03-16T02:15:13;8.02;;;5.00;;
22939;SDS011;11636;52.086;5.090;2023-03-16T02:17:46;6.68;;;4.90;;
22939;SDS011;11636;52.086;5.090;2023-03-16T02:23:15;8.23;;;5.05;;
22939;SDS011;11636;52.086;5.090;2023-03-16T02:25:51;7.13;;;4.97;;
22939;SDS011;11636;52.086;5.090;2023-03-16T02:31:26;7.95;;;5.28;;
22939;SDS011;11636;52.086;5.090;2023-03-16T02:34:00;7.85;;;4.80;;
22939;SDS011;11636;52.086;5.090;2023-03-16T02:36:27;8.52;;;5.47;;
22939;SDS011;11636;52.086;5.090;2023-03-16T02:38:55;7.93;;;5.40;;
22939;SDS011;11636;52.086;5.090;2023-03-16T02:41:28;7.85;;;5.30;;
22939;SDS011;11636;52.086;5.090;2023-03-16T02:44:00;8.32;;;5.72;;
22939;SDS011;11636;52.086;5.090;2023-03-16T02:47:03;7.88;;;5.53;;
22939;SDS011;11636;52.086;5.090;2023-03-16T02:49:48;8.23;;;5.82;;
22939;SDS011;11636;52.086;5.090;2023-03-16T02:52:26;7.25;;;5.13;;
22939;SDS011;11636;52.086;5.090;2023-03-16T02:54:53;7.05;;;4.85;;
22939;SDS011;11636;52.086;5.090;2023-03-16T02:57:20;8.52;;;5.13;;
22939;SDS011;11636;52.086;5.090;2023-03-16T02:59:54;8.63;;;5.68;;
22939;SDS011;11636;52.086;5.090;2023-03-16T03:02:27;7.00;;;5.20;;
22939;SDS011;11636;52.086;5.090;2023-03-16T03:04:53;8.70;;;5.75;;
22939;SDS011;11636;52.086;5.090;2023-03-16T03:07:27;7.18;;;4.60;;
22939;SDS011;11636;52.086;5.090;2023-03-16T03:09:57;8.02;;;5.13;;
22939;SDS011;11636;52.086;5.090;2023-03-16T03:12:24;7.72;;;5.22;;
22939;SDS011;11636;52.086;5.090;2023-03-16T03:14:58;8.00;;;5.10;;
22939;SDS011;11636;52.086;5.090;2023-03-16T03:17:28;7.97;;;4.65;;
22939;SDS011;11636;52.086;5.090;2023-03-16T03:19:58;7.85;;;4.75;;
22939;SDS011;11636;52.086;5.090;2023-03-16T03:22:40;6.68;;;4.45;;
22939;SDS011;11636;52.086;5.090;2023-03-16T03:25:07;7.47;;;4.53;;
22939;SDS011;11636;52.086;5.090;2023-03-16T03:27:41;9.25;;;5.07;;
22939;SDS011;11636;52.086;5.090;2023-03-16T03:30:09;7.00;;;4.65;;
22939;SDS011;11636;52.086;5.090;2023-03-16T03:32:39;6.32;;;4.35;;
22939;SDS011;11636;52.086;5.090;2023-03-16T03:35:14;6.55;;;4.82;;
22939;SDS011;11636;52.086;5.090;2023-03-16T03:37:41;7.82;;;5.20;;
22939;SDS011;11636;52.086;5.090;2023-03-16T03:40:11;9.00;;;5.50;;
22939;SDS011;11636;52.086;5.090;2023-03-16T03:42:49;6.85;;;4.90;;
22939;SDS011;11636;52.086;5.090;2023-03-16T03:45:16;7.20;;;4.95;;
22939;SDS011;11636;52.086;5.090;2023-03-16T03:47:50;8.45;;;5.40;;
22939;SDS011;11636;52.086;5.090;2023-03-16T03:50:17;5.95;;;4.45;;
22939;SDS011;11636;52.086;5.090;2023-03-16T03:52:44;8.38;;;4.97;;
22939;SDS011;11636;52.086;5.090;2023-03-16T03:55:18;8.15;;;5.10;;
22939;SDS011;11636;52.086;5.090;2023-03-16T03:57:44;6.78;;;4.93;;
22939;SDS011;11636;52.086;5.090;2023-03-16T04:00:11;8.80;;;5.30;;
22939;SDS011;11636;52.086;5.090;2023-03-16T04:02:45;7.70;;;4.95;;
22939;SDS011;11636;52.086;5.090;2023-03-16T04:05:12;8.32;;;5.18;;
22939;SDS011;11636;52.086;5.090;2023-03-16T04:07:48;7.35;;;5.00;;
22939;SDS011;11636;52.086;5.090;2023-03-16T04:10:20;7.13;;;4.70;;
22939;SDS011;11636;52.086;5.090;2023-03-16T04:12:57;6.78;;;4.90;;
22939;SDS011;11636;52.086;5.090;2023-03-16T04:15:24;7.78;;;5.10;;
22939;SDS011;11636;52.086;5.090;2023-03-16T04:17:58;10.90;;;5.57;;
22939;SDS011;11636;52.086;5.090;2023-03-16T04:20:25;8.32;;;5.28;;
22939;SDS011;11636;52.086;5.090;2023-03-16T04:23:05;8.02;;;4.93;;
22939;SDS011;11636;52.086;5.090;2023-03-16T04:25:32;8.00;;;5.57;;
22939;SDS011;11636;52.086;5.090;2023-03-16T04:28:06;7.30;;;5.18;;
22939;SDS011;11636;52.086;5.090;2023-03-16T04:30:33;8.80;;;5.65;;
22939;SDS011;11636;52.086;5.090;2023-03-16T04:33:07;8.95;;;5.38;;
22939;SDS011;11636;52.086;5.090;2023-03-16T04:35:34;7.88;;;5.07;;
22939;SDS011;11636;52.086;5.090;2023-03-16T04:38:07;9.23;;;5.88;;
22939;SDS011;11636;52.086;5.090;2023-03-16T04:40:35;9.30;;;5.97;;
22939;SDS011;11636;52.086;5.090;2023-03-16T04:43:09;8.55;;;5.63;;
22939;SDS011;11636;52.086;5.090;2023-03-16T04:45:36;8.35;;;5.60;;
22939;SDS011;11636;52.086;5.090;2023-03-16T04:48:09;7.82;;;5.50;;
22939;SDS011;11636;52.086;5.090;2023-03-16T04:50:35;7.70;;;5.53;;
22939;SDS011;11636;52.086;5.090;2023-03-16T04:53:09;9.15;;;5.10;;
22939;SDS011;11636;52.086;5.090;2023-03-16T04:55:36;8.77;;;6.07;;
22939;SDS011;11636;52.086;5.090;2023-03-16T04:58:09;8.50;;;5.53;;
22939;SDS011;11636;52.086;5.090;2023-03-16T05:00:35;8.77;;;5.60;;
22939;SDS011;11636;52.086;5.090;2023-03-16T05:03:14;9.05;;;5.30;;
22939;SDS011;11636;52.086;5.090;2023-03-16T05:05:41;9.35;;;5.50;;
22939;SDS011;11636;52.086;5.090;2023-03-16T05:08:08;9.40;;;5.47;;
22939;SDS011;11636;52.086;5.090;2023-03-16T05:10:42;8.20;;;5.18;;
22939;SDS011;11636;52.086;5.090;2023-03-16T05:13:09;9.27;;;5.70;;
22939;SDS011;11636;52.086;5.090;2023-03-16T05:15:43;7.57;;;5.07;;
22939;SDS011;11636;52.086;5.090;2023-03-16T05:18:11;8.73;;;5.57;;
22939;SDS011;11636;52.086;5.090;2023-03-16T05:20:45;8.38;;;5.60;;
22939;SDS011;11636;52.086;5.090;2023-03-16T05:23:16;9.23;;;5.82;;
22939;SDS011;11636;52.086;5.090;2023-03-16T05:25:49;9.85;;;5.78;;
22939;SDS011;11636;52.086;5.090;2023-03-16T05:28:16;7.00;;;5.00;;
22939;SDS011;11636;52.086;5.090;2023-03-16T05:30:49;7.43;;;5.10;;
22939;SDS011;11636;52.086;5.090;2023-03-16T05:33:27;9.00;;;5.72;;
22939;SDS011;11636;52.086;5.090;2023-03-16T05:36:01;8.27;;;5.15;;
22939;SDS011;11636;52.086;5.090;2023-03-16T05:38:28;7.63;;;5.20;;
22939;SDS011;11636;52.086;5.090;2023-03-16T05:41:03;8.30;;;4.80;;
22939;SDS011;11636;52.086;5.090;2023-03-16T05:43:31;8.32;;;5.40;;
22939;SDS011;11636;52.086;5.090;2023-03-16T05:46:06;8.85;;;4.95;;
22939;SDS011;11636;52.086;5.090;2023-03-16T05:48:33;8.50;;;5.22;;
22939;SDS011;11636;52.086;5.090;2023-03-16T05:51:07;7.53;;;4.80;;
22939;SDS011;11636;52.086;5.090;2023-03-16T05:53:40;9.50;;;5.15;;
22939;SDS011;11636;52.086;5.090;2023-03-16T05:56:13;8.77;;;5.03;;
22939;SDS011;11636;52.086;5.090;2023-03-16T05:58:40;7.85;;;5.07;;
22939;SDS011;11636;52.086;5.090;2023-03-16T06:01:14;8.00;;;5.30;;
22939;SDS011;11636;52.086;5.090;2023-03-16T06:03:41;10.13;;;5.13;;
22939;SDS011;11636;52.086;5.090;2023-03-16T06:06:15;8.93;;;5.25;;
22939;SDS011;11636;52.086;5.090;2023-03-16T06:08:42;8.52;;;4.95;;
22939;SDS011;11636;52.086;5.090;2023-03-16T06:11:16;7.30;;;4.43;;
22939;SDS011;11636;52.086;5.090;2023-03-16T06:13:43;8.55;;;4.97;;
22939;SDS011;11636;52.086;5.090;2023-03-16T06:16:10;7.65;;;4.88;;
22939;SDS011;11636;52.086;5.090;2023-03-16T06:18:46;9.55;;;5.13;;
22939;SDS011;11636;52.086;5.090;2023-03-16T06:21:13;8.52;;;4.72;;
22939;SDS011;11636;52.086;5.090;2023-03-16T06:23:46;8.15;;;4.50;;
22939;SDS011;11636;52.086;5.090;2023-03-16T06:26:13;9.80;;;4.93;;
22939;SDS011;11636;52.086;5.090;2023-03-16T06:28:46;9.68;;;4.93;;
22939;SDS011;11636;52.086;5.090;2023-03-16T06:31:14;7.50;;;4.53;;
22939;SDS011;11636;52.086;5.090;2023-03-16T06:33:47;8.23;;;4.20;;
22939;SDS011;11636;52.086;5.090;2023-03-16T06:36:14;7.65;;;3.92;;
22939;SDS011;11636;52.086;5.090;2023-03-16T06:38:47;6.90;;;4.05;;
22939;SDS011;11636;52.086;5.090;2023-03-16T06:41:14;7.40;;;4.00;;
22939;SDS011;11636;52.086;5.090;2023-03-16T06:43:47;7.35;;;3.80;;
22939;SDS011;11636;52.086;5.090;2023-03-16T06:46:14;6.72;;;3.88;;
22939;SDS011;11636;52.086;5.090;2023-03-16T06:48:47;8.15;;;3.83;;
22939;SDS011;11636;52.086;5.090;2023-03-16T06:51:20;5.35;;;3.30;;
22939;SDS011;11636;52.086;5.090;2023-03-16T06:53:53;6.70;;;3.75;;
22939;SDS011;11636;52.086;5.090;2023-03-16T06:56:20;7.32;;;3.50;;
22939;SDS011;11636;52.086;5.090;2023-03-16T06:58:54;7.13;;;3.67;;
22939;SDS011;11636;52.086;5.090;2023-03-16T07:01:21;6.78;;;3.40;;
22939;SDS011;11636;52.086;5.090;2023-03-16T07:03:54;6.07;;;3.40;;
22939;SDS011;11636;52.086;5.090;2023-03-16T07:06:21;5.13;;;3.35;;
22939;SDS011;11636;52.086;5.090;2023-03-16T07:08:48;5.93;;;3.28;;
22939;SDS011;11636;52.086;5.090;2023-03-16T07:11:22;5.57;;;3.65;;
22939;SDS011;11636;52.086;5.090;2023-03-16T07:13:49;6.20;;;3.67;;
22939;SDS011;11636;52.086;5.090;2023-03-16T07:16:23;6.07;;;3.50;;
22939;SDS011;11636;52.086;5.090;2023-03-16T07:18:50;7.35;;;3.53;;
22939;SDS011;11636;52.086;5.090;2023-03-16T07:21:24;7.63;;;3.83;;
22939;SDS011;11636;52.086;5.090;2023-03-16T07:23:51;6.07;;;3.33;;
22939;SDS011;11636;52.086;5.090;2023-03-16T07:26:24;6.78;;;3.85;;
22939;SDS011;11636;52.086;5.090;2023-03-16T07:28:57;7.38;;;3.53;;
22939;SDS011;11636;52.086;5.090;2023-03-16T07:31:24;9.35;;;3.97;;
22939;SDS011;11636;52.086;5.090;2023-03-16T07:33:58;7.00;;;3.47;;
22939;SDS011;11636;52.086;5.090;2023-03-16T07:36:32;8.77;;;3.47;;
22939;SDS011;11636;52.086;5.090;2023-03-16T07:38:59;7.15;;;3.30;;
22939;SDS011;11636;52.086;5.090;2023-03-16T07:41:33;6.85;;;3.22;;
22939;SDS011;11636;52.086;5.090;2023-03-16T07:44:00;6.72;;;3.72;;
22939;SDS011;11636;52.086;5.090;2023-03-16T07:46:33;7.32;;;3.40;;
22939;SDS011;11636;52.086;5.090;2023-03-16T07:49:00;6.28;;;3.05;;
22939;SDS011;11636;52.086;5.090;2023-03-16T07:51:27;8.80;;;3.78;;
22939;SDS011;11636;52.086;5.090;2023-03-16T07:54:01;7.40;;;3.50;;
22939;SDS011;11636;52.086;5.090;2023-03-16T07:56:36;8.05;;;3.78;;
22939;SDS011;11636;52.086;5.090;2023-03-16T07:59:14;5.82;;;3.80;;
22939;SDS011;11636;52.086;5.090;2023-03-16T08:01:48;5.05;;;3.40;;
22939;SDS011;11636;52.086;5.090;2023-03-16T08:04:15;5.50;;;3.67;;
22939;SDS011;11636;52.086;5.090;2023-03-16T08:06:49;7.18;;;4.25;;
22939;SDS011;11636;52.086;5.090;2023-03-16T08:09:25;7.22;;;4.03;;
22939;SDS011;11636;52.086;5.090;2023-03-16T08:11:59;6.80;;;4.18;;
22939;SDS011;11636;52.086;5.090;2023-03-16T08:14:33;7.82;;;4.22;;
22939;SDS011;11636;52.086;5.090;2023-03-16T08:17:01;7.85;;;3.83;;
22939;SDS011;11636;52.086;5.090;2023-03-16T08:19:35;6.40;;;3.55;;
22939;SDS011;11636;52.086;5.090;2023-03-16T08:22:02;5.65;;;3.33;;
22939;SDS011;11636;52.086;5.090;2023-03-16T08:24:36;6.38;;;3.95;;
22939;SDS011;11636;52.086;5.090;2023-03-16T08:27:03;8.52;;;4.10;;
22939;SDS011;11636;52.086;5.090;2023-03-16T08:29:37;5.85;;;3.58;;
22939;SDS011;11636;52.086;5.090;2023-03-16T08:32:04;7.32;;;4.10;;
22939;SDS011;11636;52.086;5.090;2023-03-16T08:34:31;7.78;;;3.95;;
22939;SDS011;11636;52.086;5.090;2023-03-16T08:37:10;6.70;;;3.50;;
22939;SDS011;11636;52.086;5.090;2023-03-16T08:39:45;7.93;;;3.97;;
22939;SDS011;11636;52.086;5.090;2023-03-16T08:42:18;8.20;;;3.80;;
22939;SDS011;11636;52.086;5.090;2023-03-16T08:44:52;5.85;;;3.65;;
22939;SDS011;11636;52.086;5.090;2023-03-16T08:47:21;10.00;;;3.95;;
22939;SDS011;11636;52.086;5.090;2023-03-16T08:49:54;6.10;;;3.67;;
22939;SDS011;11636;52.086;5.090;2023-03-16T08:52:28;6.78;;;3.83;;
22939;SDS011;11636;52.086;5.090;2023-03-16T08:54:55;6.55;;;4.25;;
22939;SDS011;11636;52.086;5.090;2023-03-16T08:57:30;6.20;;;3.70;;
22939;SDS011;11636;52.086;5.090;2023-03-16T08:59:58;6.45;;;3.15;;
22939;SDS011;11636;52.086;5.090;2023-03-16T09:02:32;10.75;;;3.83;;
22939;SDS011;11636;52.086;5.090;2023-03-16T09:05:11;7.22;;;3.47;;
22939;SDS011;11636;52.086;5.090;2023-03-16T09:07:40;8.10;;;3.75;;
22939;SDS011;11636;52.086;5.090;2023-03-16T09:10:14;6.43;;;3.20;;
22939;SDS011;11636;52.086;5.090;2023-03-16T09:12:42;7.60;;;3.33;;
22939;SDS011;11636;52.086;5.090;2023-03-16T09:15:15;12.45;;;3.78;;
22939;SDS011;11636;52.086;5.090;2023-03-16T09:17:42;9.18;;;3.03;;
22939;SDS011;11636;52.086;5.090;2023-03-16T09:20:16;6.47;;;3.20;;
22939;SDS011;11636;52.086;5.090;2023-03-16T09:22:51;6.05;;;3.08;;
22939;SDS011;11636;52.086;5.090;2023-03-16T09:25:26;7.75;;;3.13;;
22939;SDS011;11636;52.086;5.090;2023-03-16T09:27:53;7.30;;;3.17;;
22939;SDS011;11636;52.086;5.090;2023-03-16T09:30:27;4.75;;;2.85;;
22939;SDS011;11636;52.086;5.090;2023-03-16T09:32:55;6.57;;;3.08;;
22939;SDS011;11636;52.086;5.090;2023-03-16T09:35:22;7.18;;;3.13;;
22939;SDS011;11636;52.086;5.090;2023-03-16T09:37:56;5.07;;;2.72;;
22939;SDS011;11636;52.086;5.090;2023-03-16T09:40:33;6.00;;;2.70;;
22939;SDS011;11636;52.086;5.090;2023-03-16T09:46:23;4.55;;;2.40;;
22939;SDS011;11636;52.086;5.090;2023-03-16T09:49:08;6.00;;;2.92;;
22939;SDS011;11636;52.086;5.090;2023-03-16T09:54:52;6.55;;;2.85;;
22939;SDS011;11636;52.086;5.090;2023-03-16T09:57:38;7.63;;;3.30;;
22939;SDS011;11636;52.086;5.090;2023-03-16T10:00:21;8.15;;;3.10;;
22939;SDS011;11636;52.086;5.090;2023-03-16T10:06:10;9.45;;;3.25;;
22939;SDS011;11636;52.086;5.090;2023-03-16T10:11:22;8.45;;;3.00;;
22939;SDS011;11636;52.086;5.090;2023-03-16T10:16:53;6.40;;;2.60;;
22939;SDS011;11636;52.086;5.090;2023-03-16T10:21:58;5.88;;;2.80;;
22939;SDS011;11636;52.086;5.090;2023-03-16T10:24:40;7.55;;;3.05;;
22939;SDS011;11636;52.086;5.090;2023-03-16T10:27:17;6.13;;;2.80;;
22939;SDS011;11636;52.086;5.090;2023-03-16T10:29:54;7.00;;;2.47;;
22939;SDS011;11636;52.086;5.090;2023-03-16T10:32:23;4.53;;;2.22;;
22939;SDS011;11636;52.086;5.090;2023-03-16T10:34:59;7.17;;;2.97;;
22939;SDS011;11636;52.086;5.090;2023-03-16T10:37:37;6.90;;;2.83;;
22939;SDS011;11636;52.086;5.090;2023-03-16T10:40:06;4.82;;;2.45;;
22939;SDS011;11636;52.086;5.090;2023-03-16T10:42:34;6.03;;;2.20;;
22939;SDS011;11636;52.086;5.090;2023-03-16T10:45:51;5.40;;;2.35;;
22939;SDS011;11636;52.086;5.090;2023-03-16T10:48:07;6.37;;;2.60;;
22939;SDS011;11636;52.086;5.090;2023-03-16T10:50:49;4.72;;;2.25;;
22939;SDS011;11636;52.086;5.090;2023-03-16T10:53:24;5.78;;;2.63;;
22939;SDS011;11636;52.086;5.090;2023-03-16T10:56:07;5.07;;;2.38;;
22939;SDS011;11636;52.086;5.090;2023-03-16T10:58:39;7.25;;;2.60;;
22939;SDS011;11636;52.086;5.090;2023-03-16T11:01:16;4.65;;;2.20;;
22939;SDS011;11636;52.086;5.090;2023-03-16T11:03:47;5.82;;;2.35;;
22939;SDS011;11636;52.086;5.090;2023-03-16T11:06:27;5.50;;;2.45;;
22939;SDS011;11636;52.086;5.090;2023-03-16T11:09:09;4.88;;;2.20;;
22939;SDS011;11636;52.086;5.090;2023-03-16T11:11:48;4.75;;;1.70;;
22939;SDS011;11636;52.086;5.090;2023-03-16T11:14:18;3.75;;;1.90;;
22939;SDS011;11636;52.086;5.090;2023-03-16T11:19:44;4.13;;;1.90;;
22939;SDS011;11636;52.086;5.090;2023-03-16T11:22:26;6.63;;;2.03;;
22939;SDS011;11636;52.086;5.090;2023-03-16T11:27:41;6.20;;;2.00;;
22939;SDS011;11636;52.086;5.090;2023-03-16T11:30:26;4.65;;;1.88;;
22939;SDS011;11636;52.086;5.090;2023-03-16T11:33:09;6.85;;;2.00;;
22939;SDS011;11636;52.086;5.090;2023-03-16T11:35:51;5.85;;;1.75;;
22939;SDS011;11636;52.086;5.090;2023-03-16T11:38:33;4.25;;;1.63;;
22939;SDS011;11636;52.086;5.090;2023-03-16T11:41:36;5.00;;;1.63;;
22939;SDS011;11636;52.086;5.090;2023-03-16T12:00:58;4.38;;;1.70;;
22939;SDS011;11636;52.086;5.090;2023-03-16T12:03:40;4.85;;;1.60;;
22939;SDS011;11636;52.086;5.090;2023-03-16T12:15:08;9.55;;;2.03;;
22939;SDS011;11636;52.086;5.090;2023-03-16T12:20:51;4.03;;;1.60;;
22939;SDS011;11636;52.086;5.090;2023-03-16T12:23:35;6.45;;;1.90;;
22939;SDS011;11636;52.086;5.090;2023-03-16T12:26:07;4.85;;;1.58;;
22939;SDS011;11636;52.086;5.090;2023-03-16T12:28:41;6.18;;;1.40;;
22939;SDS011;11636;52.086;5.090;2023-03-16T12:31:10;3.85;;;1.40;;
22939;SDS011;11636;52.086;5.090;2023-03-16T12:36:44;5.25;;;1.33;;
22939;SDS011;11636;52.086;5.090;2023-03-16T12:41:58;4.53;;;1.40;;
22939;SDS011;11636;52.086;5.090;2023-03-16T12:44:46;4.93;;;1.50;;
22939;SDS011;11636;52.086;5.090;2023-03-16T12:47:21;5.10;;;1.50;;
22939;SDS011;11636;52.086;5.090;2023-03-16T12:50:09;4.72;;;1.50;;
22939;SDS011;11636;52.086;5.090;2023-03-16T12:52:41;3.63;;;1.50;;
22939;SDS011;11636;52.086;5.090;2023-03-16T12:55:17;4.68;;;1.30;;
22939;SDS011;11636;52.086;5.090;2023-03-16T12:57:47;5.85;;;1.70;;
22939;SDS011;11636;52.086;5.090;2023-03-16T13:00:31;4.40;;;1.60;;
22939;SDS011;11636;52.086;5.090;2023-03-16T13:03:01;3.67;;;1.33;;
22939;SDS011;11636;52.086;5.090;2023-03-16T13:05:36;3.55;;;1.27;;
22939;SDS011;11636;52.086;5.090;2023-03-16T13:08:15;4.00;;;1.38;;
22939;SDS011;11636;52.086;5.090;2023-03-16T13:11:09;3.28;;;1.23;;
22939;SDS011;11636;52.086;5.090;2023-03-16T13:13:50;4.70;;;1.50;;
22939;SDS011;11636;52.086;5.090;2023-03-16T13:16:33;3.75;;;1.00;;
22939;SDS011;11636;52.086;5.090;2023-03-16T13:19:15;5.13;;;1.30;;
22939;SDS011;11636;52.086;5.090;2023-03-16T13:24:52;5.03;;;1.20;;
22939;SDS011;11636;52.086;5.090;2023-03-16T13:27:57;3.25;;;1.40;;
22939;SDS011;11636;52.086;5.090;2023-03-16T13:30:26;5.32;;;1.15;;
22939;SDS011;11636;52.086;5.090;2023-03-16T13:33:14;5.57;;;1.40;;
22939;SDS011;11636;52.086;5.090;2023-03-16T13:35:55;4.80;;;1.15;;
22939;SDS011;11636;52.086;5.090;2023-03-16T13:38:24;4.25;;;1.50;;
22939;SDS011;11636;52.086;5.090;2023-03-16T13:41:01;3.33;;;1.23;;
22939;SDS011;11636;52.086;5.090;2023-03-16T13:43:34;5.53;;;1.38;;
22939;SDS011;11636;52.086;5.090;2023-03-16T13:46:14;4.65;;;1.50;;
22939;SDS011;11636;52.086;5.090;2023-03-16T13:48:43;3.92;;;1.10;;
22939;SDS011;11636;52.086;5.090;2023-03-16T13:51:20;3.67;;;1.40;;
22939;SDS011;11636;52.086;5.090;2023-03-16T13:53:48;4.47;;;1.35;;
22939;SDS011;11636;52.086;5.090;2023-03-16T13:56:17;4.93;;;1.35;;
22939;SDS011;11636;52.086;5.090;2023-03-16T13:59:00;3.67;;;1.30;;
22939;SDS011;11636;52.086;5.090;2023-03-16T14:01:34;4.20;;;1.27;;
22939;SDS011;11636;52.086;5.090;2023-03-16T14:04:02;4.43;;;1.40;;
22939;SDS011;11636;52.086;5.090;2023-03-16T14:06:34;4.45;;;1.10;;
22939;SDS011;11636;52.086;5.090;2023-03-16T14:09:12;4.53;;;1.20;;
22939;SDS011;11636;52.086;5.090;2023-03-16T14:11:49;4.70;;;1.38;;
22939;SDS011;11636;52.086;5.090;2023-03-16T14:14:27;5.20;;;1.50;;
22939;SDS011;11636;52.086;5.090;2023-03-16T14:16:59;5.47;;;1.20;;
22939;SDS011;11636;52.086;5.090;2023-03-16T14:19:47;3.30;;;1.17;;
22939;SDS011;11636;52.086;5.090;2023-03-16T14:22:24;3.63;;;1.13;;
22939;SDS011;11636;52.086;5.090;2023-03-16T14:25:06;4.05;;;1.27;;
22939;SDS011;11636;52.086;5.090;2023-03-16T14:27:42;4.70;;;1.00;;
22939;SDS011;11636;52.086;5.090;2023-03-16T14:30:19;3.58;;;1.20;;
22939;SDS011;11636;52.086;5.090;2023-03-16T14:32:58;5.18;;;1.10;;
22939;SDS011;11636;52.086;5.090;2023-03-16T14:35:55;3.25;;;1.02;;
22939;SDS011;11636;52.086;5.090;2023-03-16T14:38:33;3.60;;;1.27;;
22939;SDS011;11636;52.086;5.090;2023-03-16T14:43:59;3.47;;;1.33;;
22939;SDS011;11636;52.086;5.090;2023-03-16T14:46:27;3.42;;;1.20;;
22939;SDS011;11636;52.086;5.090;2023-03-16T14:49:18;4.32;;;1.20;;
22939;SDS011;11636;52.086;5.090;2023-03-16T14:51:49;3.70;;;1.13;;
22939;SDS011;11636;52.086;5.090;2023-03-16T14:54:25;3.30;;;1.35;;
22939;SDS011;11636;52.086;5.090;2023-03-16T14:56:54;4.78;;;1.60;;
22939;SDS011;11636;52.086;5.090;2023-03-16T14:59:32;5.63;;;1.70;;
22939;SDS011;11636;52.086;5.090;2023-03-16T15:02:00;4.60;;;1.60;;
22939;SDS011;11636;52.086;5.090;2023-03-16T15:04:36;5.35;;;1.17;;
22939;SDS011;11636;52.086;5.090;2023-03-16T15:10:00;3.35;;;1.10;;
22939;SDS011;11636;52.086;5.090;2023-03-16T15:12:32;2.72;;;0.90;;
22939;SDS011;11636;52.086;5.090;2023-03-16T15:15:13;4.22;;;1.20;;
22939;SDS011;11636;52.086;5.090;2023-03-16T15:17:42;3.88;;;1.10;;
22939;SDS011;11636;52.086;5.090;2023-03-16T15:20:17;4.28;;;1.20;;
22939;SDS011;11636;52.086;5.090;2023-03-16T15:22:49;3.28;;;1.17;;
22939;SDS011;11636;52.086;5.090;2023-03-16T15:25:34;3.80;;;1.20;;
22939;SDS011;11636;52.086;5.090;2023-03-16T15:28:17;3.58;;;1.15;;
22939;SDS011;11636;52.086;5.090;2023-03-16T15:30:53;3.30;;;1.00;;
22939;SDS011;11636;52.086;5.090;2023-03-16T15:33:22;2.25;;;1.05;;
22939;SDS011;11636;52.086;5.090;2023-03-16T15:35:51;4.75;;;1.30;;
22939;SDS011;11636;52.086;5.090;2023-03-16T15:38:28;5.03;;;1.10;;
22939;SDS011;11636;52.086;5.090;2023-03-16T15:41:09;4.13;;;0.90;;
22939;SDS011;11636;52.086;5.090;2023-03-16T15:43:37;3.55;;;1.10;;
22939;SDS011;11636;52.086;5.090;2023-03-16T15:46:05;3.58;;;1.13;;
22939;SDS011;11636;52.086;5.090;2023-03-16T15:48:39;3.65;;;1.20;;
22939;SDS011;11636;52.086;5.090;2023-03-16T15:51:23;3.55;;;1.13;;
22939;SDS011;11636;52.086;5.090;2023-03-16T15:54:00;4.80;;;1.23;;
22939;SDS011;11636;52.086;5.090;2023-03-16T15:56:30;5.28;;;1.20;;
22939;SDS011;11636;52.086;5.090;2023-03-16T15:59:19;3.75;;;0.98;;
22939;SDS011;11636;52.086;5.090;2023-03-16T16:01:47;2.95;;;1.00;;
22939;SDS011;11636;52.086;5.090;2023-03-16T16:04:22;3.90;;;1.10;;
22939;SDS011;11636;52.086;5.090;2023-03-16T16:06:51;2.92;;;0.93;;
22939;SDS011;11636;52.086;5.090;2023-03-16T16:09:20;3.45;;;0.90;;
22939;SDS011;11636;52.086;5.090;2023-03-16T16:11:55;2.47;;;0.85;;
22939;SDS011;11636;52.086;5.090;2023-03-16T16:14:22;2.55;;;1.02;;
22939;SDS011;11636;52.086;5.090;2023-03-16T16:16:50;2.72;;;0.93;;
22939;SDS011;11636;52.086;5.090;2023-03-16T16:19:26;3.50;;;0.98;;
22939;SDS011;11636;52.086;5.090;2023-03-16T16:22:01;3.15;;;0.90;;
22939;SDS011;11636;52.086;5.090;2023-03-16T16:24:28;4.57;;;1.35;;
22939;SDS011;11636;52.086;5.090;2023-03-16T16:27:02;2.10;;;0.95;;
22939;SDS011;11636;52.086;5.090;2023-03-16T16:29:30;3.58;;;1.10;;
22939;SDS011;11636;52.086;5.090;2023-03-16T16:31:59;3.72;;;1.17;;
22939;SDS011;11636;52.086;5.090;2023-03-16T16:34:33;2.35;;;0.77;;
22939;SDS011;11636;52.086;5.090;2023-03-16T16:37:08;4.55;;;1.10;;
22939;SDS011;11636;52.086;5.090;2023-03-16T16:39:36;3.53;;;1.10;;
22939;SDS011;11636;52.086;5.090;2023-03-16T16:42:13;4.57;;;1.15;;
22939;SDS011;11636;52.086;5.090;2023-03-16T16:44:48;2.42;;;0.80;;
22939;SDS011;11636;52.086;5.090;2023-03-16T16:47:17;2.63;;;1.00;;
22939;SDS011;11636;52.086;5.090;2023-03-16T16:49:53;3.20;;;0.98;;
22939;SDS011;11636;52.086;5.090;2023-03-16T16:52:26;3.38;;;0.90;;